createdAt,value
2022-08-17T00:01:09.585Z,22.14
2022-08-17T00:06:16.642Z,22.09
2022-08-17T00:11:22.587Z,22.00
2022-08-17T00:16:55.505Z,21.98
2022-08-17T00:22:33.752Z,22.01
2022-08-17T00:27:24.352Z,21.96
2022-08-17T00:33:13.692Z,21.91
2022-08-17T00:37:50.614Z,21.87
2022-08-17T00:42:54.688Z,21.86
2022-08-17T00:47:57.770Z,21.84
2022-08-17T00:53:00.514Z,21.81
2022-08-17T00:58:05.923Z,21.78
2022-08-17T01:03:11.988Z,21.84
2022-08-17T01:08:16.377Z,21.82
2022-08-17T01:13:20.765Z,21.80
2022-08-17T01:18:23.807Z,21.73
2022-08-17T01:23:28.809Z,21.72
2022-08-17T01:28:53.155Z,21.71
2022-08-17T01:33:58.251Z,21.71
2022-08-17T01:39:02.427Z,21.68
2022-08-17T01:44:07.415Z,21.63
2022-08-17T01:49:12.577Z,21.52
2022-08-17T01:54:18.807Z,21.50
2022-08-17T01:59:21.580Z,21.44
2022-08-17T02:04:24.470Z,21.35
2022-08-17T02:09:30.575Z,21.31
2022-08-17T02:14:34.058Z,21.31
2022-08-17T02:19:36.750Z,21.25
2022-08-17T02:25:00.784Z,21.20
2022-08-17T02:30:04.121Z,21.14
2022-08-17T02:35:26.818Z,21.14
2022-08-17T02:40:35.726Z,21.10
2022-08-17T02:45:39.645Z,21.01
2022-08-17T02:50:42.353Z,20.93
2022-08-17T02:55:46.456Z,20.92
2022-08-17T03:00:49.484Z,20.88
2022-08-17T03:05:53.116Z,20.88
2022-08-17T03:10:57.467Z,20.85
2022-08-17T03:16:00.274Z,20.81
2022-08-17T03:21:04.288Z,20.64
2022-08-17T03:26:12.336Z,20.66
2022-08-17T03:31:18.614Z,20.72
2022-08-17T03:36:21.426Z,20.77
2022-08-17T03:41:25.543Z,20.79
2022-08-17T03:46:42.209Z,20.80
2022-08-17T03:52:02.330Z,20.82
2022-08-17T03:57:08.546Z,20.83
2022-08-17T04:02:13.123Z,20.78
2022-08-17T04:07:15.858Z,20.83
2022-08-17T04:12:21.777Z,20.80
2022-08-17T04:17:26.162Z,20.82
2022-08-17T04:22:31.402Z,20.83
2022-08-17T04:27:38.105Z,20.87
2022-08-17T04:33:00.649Z,20.94
2022-08-17T04:38:13.160Z,20.99
2022-08-17T04:43:19.455Z,21.06
2022-08-17T04:48:22.459Z,21.12
2022-08-17T04:53:25.343Z,21.21
2022-08-17T04:58:29.552Z,21.29
2022-08-17T05:03:32.307Z,21.28
2022-08-17T05:08:35.032Z,21.25
2022-08-17T05:13:39.095Z,21.28
2022-08-17T05:18:41.801Z,21.25
2022-08-17T05:23:46.132Z,21.24
2022-08-17T05:29:02.614Z,21.27
2022-08-17T05:34:05.634Z,21.31
2022-08-17T05:39:08.303Z,21.33
2022-08-17T05:44:20.089Z,21.36
2022-08-17T05:49:27.451Z,21.38
2022-08-17T05:54:39.445Z,21.49
2022-08-17T05:59:51.878Z,21.49
2022-08-17T06:05:05.826Z,21.49
2022-08-17T06:10:14.604Z,21.51
2022-08-17T06:15:30.979Z,21.51
2022-08-17T06:20:38.939Z,21.71
2022-08-17T06:25:46.109Z,21.86
2022-08-17T06:31:00.743Z,21.99
2022-08-17T06:36:11.514Z,22.07
2022-08-17T06:41:24.273Z,22.05
2022-08-17T06:46:32.415Z,22.07
2022-08-17T06:51:39.478Z,22.14
2022-08-17T06:56:53.511Z,22.34
2022-08-17T07:02:04.813Z,22.64
2022-08-17T07:07:24.289Z,22.78
2022-08-17T07:12:29.577Z,22.87
2022-08-17T07:17:47.845Z,22.85
2022-08-17T07:22:59.800Z,22.73
2022-08-17T07:28:06.930Z,22.82
2022-08-17T07:33:14.336Z,22.89
2022-08-17T07:38:25.485Z,22.96
2022-08-17T07:43:31.189Z,23.03
2022-08-17T07:48:39.154Z,23.13
2022-08-17T07:53:42.388Z,23.24
2022-08-17T07:58:47.413Z,23.31
2022-08-17T08:03:52.782Z,23.45
2022-08-17T08:08:56.903Z,23.60
2022-08-17T08:14:29.276Z,23.69
2022-08-17T08:19:34.746Z,23.86
2022-08-17T08:24:52.916Z,24.04
2022-08-17T08:30:02.851Z,24.19
2022-08-17T08:35:10.222Z,24.31
2022-08-17T08:40:27.842Z,24.43
2022-08-17T08:45:42.285Z,24.59
2022-08-17T08:50:49.241Z,24.75
2022-08-17T08:55:56.344Z,24.92
2022-08-17T09:00:59.797Z,25.07
2022-08-17T09:06:28.679Z,25.15
2022-08-17T09:12:02.303Z,25.27
2022-08-17T09:17:09.139Z,25.53
2022-08-17T09:22:25.708Z,25.68
2022-08-17T09:27:32.061Z,25.85
2022-08-17T09:32:38.985Z,26.05
2022-08-17T09:37:51.141Z,26.21
2022-08-17T09:42:56.984Z,26.24
2022-08-17T09:48:04.923Z,26.43
2022-08-17T09:53:09.347Z,26.46
2022-08-17T09:58:18.526Z,26.63
2022-08-17T10:03:34.328Z,26.67
2022-08-17T10:08:43.326Z,26.86
2022-08-17T10:13:53.417Z,27.15
2022-08-17T10:19:04.444Z,27.29
2022-08-17T10:24:30.660Z,27.51
2022-08-17T10:29:48.618Z,27.69
2022-08-17T10:35:00.638Z,27.89
2022-08-17T10:40:20.734Z,28.15
2022-08-17T10:45:27.043Z,28.30
2022-08-17T10:50:50.580Z,28.32
2022-08-17T10:56:23.180Z,28.32
2022-08-17T11:02:04.322Z,28.57
2022-08-17T11:07:12.041Z,28.74
2022-08-17T11:12:32.555Z,28.95
2022-08-17T11:18:02.540Z,29.24
2022-08-17T11:23:21.864Z,29.54
2022-08-17T11:28:34.252Z,29.59
2022-08-17T11:33:56.680Z,29.92
2022-08-17T11:39:06.013Z,30.29
2022-08-17T11:44:19.336Z,30.77
2022-08-17T11:49:53.476Z,31.57
2022-08-17T11:55:07.728Z,33.40
2022-08-17T12:00:52.418Z,33.52
2022-08-17T12:06:04.228Z,33.46
2022-08-17T12:11:09.609Z,33.89
2022-08-17T12:16:16.650Z,34.41
2022-08-17T12:21:46.238Z,34.73
2022-08-17T12:26:53.458Z,34.94
2022-08-17T12:31:58.178Z,34.90
2022-08-17T12:37:02.791Z,34.67
2022-08-17T12:42:07.902Z,34.78
2022-08-17T12:47:21.802Z,35.23
2022-08-17T12:52:27.476Z,34.76
2022-08-17T12:57:32.982Z,34.81
2022-08-17T13:02:46.361Z,33.81
2022-08-17T13:07:50.481Z,34.68
2022-08-17T13:12:54.067Z,34.86
2022-08-17T13:18:01.770Z,35.18
2022-08-17T13:23:11.859Z,35.32
2022-08-17T13:28:30.593Z,35.17
2022-08-17T13:33:43.682Z,35.39
2022-08-17T13:38:50.922Z,35.57
2022-08-17T13:43:53.679Z,35.67
2022-08-17T13:49:03.228Z,35.47
2022-08-17T13:54:16.584Z,35.54
2022-08-17T13:59:53.727Z,35.63
2022-08-17T14:04:53.574Z,35.65
2022-08-17T14:09:59.787Z,35.79
2022-08-17T14:15:03.471Z,36.06
2022-08-17T14:20:10.583Z,36.13
2022-08-17T14:25:14.670Z,36.32
2022-08-17T14:30:19.811Z,37.03
2022-08-17T14:35:24.607Z,37.46
2022-08-17T14:40:28.180Z,37.80
2022-08-17T14:45:32.735Z,38.32
2022-08-17T14:50:38.393Z,38.45
2022-08-17T14:55:41.118Z,38.06
2022-08-17T15:00:44.009Z,39.41
2022-08-17T15:05:48.636Z,40.28
2022-08-17T15:10:54.220Z,39.83
2022-08-17T15:15:59.196Z,37.10
2022-08-17T15:21:05.042Z,36.56
2022-08-17T15:26:08.437Z,35.88
2022-08-17T15:31:11.255Z,35.17
2022-08-17T15:36:15.525Z,34.13
2022-08-17T15:41:19.491Z,34.26
2022-08-17T15:46:24.236Z,34.27
2022-08-17T15:51:30.987Z,34.10
2022-08-17T15:56:33.823Z,33.90
2022-08-17T16:03:01.708Z,33.81
2022-08-17T16:07:01.167Z,34.20
2022-08-17T16:12:10.633Z,34.97
2022-08-17T16:17:38.824Z,34.90
2022-08-17T16:22:40.224Z,34.18
2022-08-17T16:27:43.487Z,33.01
2022-08-17T16:32:46.574Z,33.14
2022-08-17T16:37:54.256Z,32.89
2022-08-17T16:42:57.743Z,32.55
2022-08-17T16:48:01.506Z,32.39
2022-08-17T16:53:08.962Z,32.34
2022-08-17T16:58:11.760Z,32.52
2022-08-17T17:03:19.451Z,32.17
2022-08-17T17:08:30.290Z,31.78
2022-08-17T17:13:38.883Z,31.43
2022-08-17T17:18:43.872Z,31.14
2022-08-17T17:23:54.421Z,30.77
2022-08-17T17:29:09.434Z,30.44
2022-08-17T17:34:13.713Z,30.26
2022-08-17T17:39:19.608Z,30.10
2022-08-17T17:44:25.725Z,29.95
2022-08-17T17:49:31.192Z,29.75
2022-08-17T17:54:43.761Z,29.63
2022-08-17T17:59:51.275Z,29.46
2022-08-17T18:05:00.863Z,29.29
2022-08-17T18:10:29.861Z,29.11
2022-08-17T18:15:37.251Z,28.91
2022-08-17T18:20:53.125Z,28.84
2022-08-17T18:25:59.377Z,28.71
2022-08-17T18:31:12.913Z,28.46
2022-08-17T18:36:27.733Z,28.37
2022-08-17T18:41:41.294Z,28.29
2022-08-17T18:46:44.380Z,28.20
2022-08-17T18:51:47.560Z,28.09
2022-08-17T18:56:54.109Z,27.98
2022-08-17T19:02:13.853Z,27.91
2022-08-17T19:07:29.191Z,27.80
2022-08-17T19:12:37.866Z,27.71
2022-08-17T19:17:49.262Z,27.65
2022-08-17T19:22:58.783Z,27.57
2022-08-17T19:28:21.464Z,27.47
2022-08-17T19:33:25.068Z,27.32
2022-08-17T19:38:37.438Z,27.24
2022-08-17T19:43:52.243Z,27.15
2022-08-17T19:49:00.149Z,27.05
2022-08-17T19:54:07.430Z,27.02
2022-08-17T19:59:17.386Z,26.98
2022-08-17T20:04:34.603Z,26.86
2022-08-17T20:09:40.206Z,26.75
2022-08-17T20:14:55.124Z,26.62
2022-08-17T20:20:03.361Z,26.45
2022-08-17T20:25:09.688Z,26.42
2022-08-17T20:30:15.810Z,26.35
2022-08-17T20:35:27.472Z,26.31
2022-08-17T20:40:35.135Z,26.29
2022-08-17T20:46:08.795Z,26.21
2022-08-17T20:51:17.826Z,26.27
2022-08-17T20:56:52.011Z,26.23
2022-08-17T21:02:18.340Z,26.19
2022-08-17T21:07:29.009Z,26.18
2022-08-17T21:12:43.057Z,26.13
2022-08-17T21:17:51.342Z,26.01
2022-08-17T21:23:09.165Z,25.87
2022-08-17T21:28:17.304Z,25.78
2022-08-17T21:33:31.420Z,25.76
2022-08-17T21:38:36.591Z,25.62
2022-08-17T21:43:47.701Z,25.46
2022-08-17T21:48:54.434Z,25.30
2022-08-17T21:53:59.525Z,25.18
2022-08-17T21:59:04.358Z,25.07
2022-08-17T22:04:21.978Z,25.02
2022-08-17T22:09:27.071Z,24.90
2022-08-17T22:14:53.370Z,24.74
2022-08-17T22:20:00.398Z,24.65
2022-08-17T22:25:07.361Z,24.52
2022-08-17T22:30:19.083Z,24.46
2022-08-17T22:35:33.614Z,24.34
2022-08-17T22:40:36.365Z,24.17
2022-08-17T22:45:41.606Z,24.19
2022-08-17T22:50:45.734Z,24.18
2022-08-17T22:56:09.971Z,24.18
2022-08-17T23:01:28.277Z,24.16
2022-08-17T23:06:33.777Z,24.09
2022-08-17T23:11:49.254Z,23.97
2022-08-17T23:16:53.147Z,23.92
2022-08-17T23:21:57.855Z,23.81
2022-08-17T23:27:00.641Z,23.80
2022-08-17T23:32:04.730Z,23.78
2022-08-17T23:37:11.028Z,23.65
2022-08-17T23:42:16.814Z,23.58
2022-08-17T23:47:19.808Z,23.46
2022-08-17T23:52:24.326Z,23.51
2022-08-17T23:57:33.578Z,23.44
